Time;durP1;ratioP1;P1;durP2;ratioP2;P2;SDS_P1;SDS_P2;PMS_P1;PMS_P2;Temp;Humidity;BMP_temperature;BMP_pressure;BME280_temperature;BME280_humidity;BME280_pressure;Samples;Min_cycle;Max_cycle;Signal;HPM_P1;HPM_P2
2022/07/29 00:00:18;;;;;;;;;;;26.10;95.80;;;;;;5021596;28;19917;-51
2022/07/29 00:02:44;;;;;;;;;;;26.10;95.80;;;;;;5021079;28;20101;-52
2022/07/29 00:05:13;;;;;;;;;;;26.10;95.80;;;;;;5021144;28;19922;-51
2022/07/29 00:07:40;;;;;;;;;;;26.10;95.80;;;;;;5019990;28;19914;-59
2022/07/29 00:10:07;;;;;;;;;;;26.10;95.70;;;;;;5019599;28;19906;-59
2022/07/29 00:12:33;;;;;;;;;;;26.10;95.60;;;;;;5019532;28;19913;-52
2022/07/29 00:14:59;;;;;;;;;;;26.10;95.50;;;;;;5019623;28;19957;-57
2022/07/29 00:17:26;;;;;;;;;;;26.20;95.60;;;;;;5019351;28;19939;-57
2022/07/29 00:19:52;;;;;;;;;;;26.10;95.50;;;;;;5019541;28;19906;-46
2022/07/29 00:22:20;;;;;;;;;;;26.20;95.50;;;;;;5020575;28;19977;-53
2022/07/29 00:25:27;;;;;;;;;;;26.20;95.40;;;;;;5021153;28;19943;-55
2022/07/29 00:27:52;;;;;;;;;;;26.20;95.30;;;;;;5025196;28;19913;-59
2022/07/29 00:42:57;;;;;;;;;;;26.20;95.10;;;;;;5121682;27;19939;-44
2022/07/29 00:45:24;;;;;;;;;;;26.40;94.80;;;;;;5121766;28;20137;-46
2022/07/29 00:47:50;;;;;;;;;;;26.30;94.80;;;;;;5121704;28;19910;-52
2022/07/29 00:50:16;;;;;;;;;;;26.30;95.00;;;;;;5121112;28;20076;-51
2022/07/29 00:52:43;;;;;;;;;;;26.30;95.20;;;;;;5121432;28;19972;-47
2022/07/29 00:55:10;;;;;;;;;;;26.30;95.40;;;;;;5121201;28;19939;-45
2022/07/29 00:57:37;;;;;;;;;;;26.30;95.30;;;;;;5120125;28;19908;-49
2022/07/29 01:00:05;;;;;;;;;;;26.20;95.10;;;;;;5120603;28;19975;-46
2022/07/29 01:02:31;;;;;;;;;;;26.20;95.30;;;;;;5101063;28;19959;-50
2022/07/29 01:04:57;;;;;;;;;;;26.20;95.50;;;;;;5100680;28;19908;-47
2022/07/29 01:20:36;;;;;;;;;;;26.20;95.50;;;;;;5121241;27;19951;-54
2022/07/29 01:23:22;;;;;;;;;;;26.40;95.70;;;;;;5122144;28;19919;-57
2022/07/29 01:25:48;;;;;;;;;;;26.30;95.70;;;;;;5121785;28;19967;-52
2022/07/29 01:28:31;;;;;;;;;;;26.30;95.80;;;;;;5121793;28;19985;-54
2022/07/29 01:30:58;;;;;;;;;;;26.20;95.70;;;;;;5121761;28;19908;-52
2022/07/29 01:36:23;;;;;;;;;;;26.20;95.80;;;;;;5121393;28;20222;-55
2022/07/29 01:38:54;;;;;;;;;;;26.20;95.80;;;;;;5121449;28;20210;-55
2022/07/29 01:41:21;;;;;;;;;;;26.10;95.80;;;;;;5121826;28;19918;-52
2022/07/29 01:44:10;;;;;;;;;;;26.10;95.70;;;;;;5121553;28;19911;-53
2022/07/29 01:46:38;;;;;;;;;;;26.00;95.50;;;;;;5115546;28;19912;-51
2022/07/29 01:49:15;;;;;;;;;;;26.00;95.40;;;;;;5121138;28;20199;-53
2022/07/29 01:51:47;;;;;;;;;;;26.00;95.50;;;;;;5121237;28;19912;-51
2022/07/29 01:54:26;;;;;;;;;;;25.90;95.50;;;;;;5121152;28;19904;-52
2022/07/29 01:56:56;;;;;;;;;;;25.90;95.50;;;;;;5141693;28;19944;-53
2022/07/29 01:59:23;;;;;;;;;;;25.90;95.40;;;;;;5123350;28;19934;-51
2022/07/29 02:01:50;;;;;;;;;;;25.80;95.30;;;;;;5141754;28;20179;-50
2022/07/29 02:04:18;;;;;;;;;;;25.70;95.50;;;;;;5141382;28;19925;-56
2022/07/29 02:06:44;;;;;;;;;;;25.70;95.70;;;;;;5141553;28;19923;-56
2022/07/29 02:09:12;;;;;;;;;;;25.80;95.60;;;;;;5140333;27;19907;-55
2022/07/29 02:11:39;;;;;;;;;;;25.80;95.40;;;;;;5140518;28;20008;-57
2022/07/29 02:14:07;;;;;;;;;;;25.80;95.40;;;;;;5158531;27;19985;-54
2022/07/29 02:16:34;;;;;;;;;;;25.80;95.30;;;;;;5139385;28;20129;-57
2022/07/29 02:19:01;;;;;;;;;;;25.80;95.20;;;;;;5144613;27;19960;-56
2022/07/29 02:21:29;;;;;;;;;;;25.80;95.20;;;;;;5131805;27;19922;-59
2022/07/29 02:23:59;;;;;;;;;;;25.80;95.10;;;;;;5109501;28;20195;-53
2022/07/29 02:26:26;;;;;;;;;;;25.80;95.30;;;;;;5127778;28;19943;-54
2022/07/29 02:28:54;;;;;;;;;;;25.80;95.40;;;;;;5126419;28;19923;-54
2022/07/29 02:31:22;;;;;;;;;;;25.80;95.20;;;;;;5126604;28;19920;-57
2022/07/29 02:33:50;;;;;;;;;;;25.80;95.30;;;;;;5127140;28;19921;-53
2022/07/29 02:36:16;;;;;;;;;;;25.80;95.40;;;;;;5141007;27;19911;-58
2022/07/29 02:38:53;;;;;;;;;;;25.80;95.40;;;;;;5128859;27;19922;-54
2022/07/29 02:41:35;;;;;;;;;;;25.80;95.40;;;;;;5126723;28;19911;-52
2022/07/29 02:44:20;;;;;;;;;;;25.80;95.50;;;;;;5126938;28;19904;-54
2022/07/29 02:46:50;;;;;;;;;;;25.70;95.50;;;;;;5107944;28;19946;-55
2022/07/29 02:49:30;;;;;;;;;;;25.80;95.60;;;;;;5119034;28;19975;-57
2022/07/29 02:52:01;;;;;;;;;;;25.70;95.60;;;;;;5125542;28;19915;-56
2022/07/29 02:54:42;;;;;;;;;;;25.70;95.60;;;;;;5126571;28;19910;-55
2022/07/29 02:57:17;;;;;;;;;;;25.70;95.70;;;;;;5128132;27;19954;-52
2022/07/29 02:59:48;;;;;;;;;;;25.70;95.90;;;;;;5106540;28;20021;-58
2022/07/29 03:02:15;;;;;;;;;;;25.70;95.90;;;;;;5117522;28;19907;-53
2022/07/29 03:04:42;;;;;;;;;;;25.80;96.00;;;;;;5106728;28;19912;-55
2022/07/29 03:07:09;;;;;;;;;;;25.80;95.90;;;;;;5107150;27;19911;-56
2022/07/29 03:09:36;;;;;;;;;;;25.90;96.00;;;;;;5132504;27;20186;-58
2022/07/29 03:12:03;;;;;;;;;;;25.90;95.90;;;;;;5123302;27;20099;-58
2022/07/29 03:14:30;;;;;;;;;;;26.00;95.90;;;;;;5125680;28;19915;-57
2022/07/29 03:16:57;;;;;;;;;;;26.00;95.80;;;;;;5126119;27;19930;-57
2022/07/29 03:19:23;;;;;;;;;;;26.00;95.70;;;;;;5123681;28;19928;-56
2022/07/29 03:21:49;;;;;;;;;;;26.00;95.60;;;;;;5126267;27;20009;-57
2022/07/29 03:24:30;;;;;;;;;;;26.00;95.60;;;;;;5122309;28;20091;-59
2022/07/29 03:26:57;;;;;;;;;;;26.00;95.60;;;;;;5123173;28;19914;-60
2022/07/29 03:29:23;;;;;;;;;;;26.10;95.60;;;;;;5123478;28;19911;-58
2022/07/29 03:31:49;;;;;;;;;;;26.10;95.50;;;;;;5123866;28;20133;-58
2022/07/29 03:34:15;;;;;;;;;;;26.10;95.40;;;;;;5124066;28;19950;-59
2022/07/29 03:36:42;;;;;;;;;;;26.10;95.40;;;;;;5125010;28;19930;-57
2022/07/29 03:39:11;;;;;;;;;;;26.10;95.60;;;;;;5125414;28;19931;-60
2022/07/29 03:41:38;;;;;;;;;;;26.10;95.60;;;;;;5116413;27;19982;-59
2022/07/29 03:44:05;;;;;;;;;;;26.10;95.60;;;;;;5127585;27;19903;-55
2022/07/29 03:46:32;;;;;;;;;;;26.10;95.60;;;;;;5144333;27;20175;-55
2022/07/29 03:48:59;;;;;;;;;;;26.00;95.50;;;;;;5144288;27;20256;-50
2022/07/29 03:51:26;;;;;;;;;;;26.00;95.60;;;;;;5141195;27;19911;-51
2022/07/29 03:53:53;;;;;;;;;;;26.00;95.70;;;;;;5145664;27;19911;-52
2022/07/29 03:56:21;;;;;;;;;;;26.00;95.70;;;;;;5146207;27;19918;-49
2022/07/29 03:58:48;;;;;;;;;;;26.00;95.70;;;;;;5134824;27;19911;-49
2022/07/29 04:01:17;;;;;;;;;;;26.00;95.70;;;;;;5136201;27;20127;-49
2022/07/29 04:03:45;;;;;;;;;;;26.00;95.70;;;;;;5146478;27;19949;-53
2022/07/29 04:06:11;;;;;;;;;;;26.00;95.70;;;;;;5146186;27;19939;-49
2022/07/29 04:08:38;;;;;;;;;;;26.00;95.70;;;;;;5145998;27;19915;-49
2022/07/29 04:11:05;;;;;;;;;;;26.00;95.70;;;;;;5146620;27;20203;-48
2022/07/29 04:13:32;;;;;;;;;;;26.00;95.60;;;;;;5146217;27;19927;-48
2022/07/29 04:15:58;;;;;;;;;;;26.10;95.60;;;;;;5124756;28;20104;-48
2022/07/29 04:18:25;;;;;;;;;;;26.10;95.60;;;;;;5124504;28;20135;-48
2022/07/29 04:20:51;;;;;;;;;;;26.10;95.60;;;;;;5125282;28;19919;-51
2022/07/29 04:23:17;;;;;;;;;;;26.10;95.60;;;;;;5124744;28;20099;-49
2022/07/29 04:25:43;;;;;;;;;;;26.00;95.50;;;;;;5118296;28;19912;-49
2022/07/29 04:28:09;;;;;;;;;;;26.10;95.60;;;;;;5125215;28;20099;-52
2022/07/29 04:30:36;;;;;;;;;;;26.10;95.50;;;;;;5125733;28;20092;-48
2022/07/29 04:33:03;;;;;;;;;;;26.10;95.50;;;;;;5138780;27;19943;-52
2022/07/29 04:35:30;;;;;;;;;;;26.10;95.60;;;;;;5146573;27;19934;-49
2022/07/29 04:37:56;;;;;;;;;;;26.10;95.60;;;;;;5145741;27;19910;-53
2022/07/29 04:40:22;;;;;;;;;;;26.00;95.50;;;;;;5146426;27;19919;-48
2022/07/29 04:42:48;;;;;;;;;;;26.10;95.50;;;;;;5145380;27;19974;-49
2022/07/29 04:45:14;;;;;;;;;;;26.10;95.60;;;;;;5145908;27;20169;-49
2022/07/29 04:47:40;;;;;;;;;;;26.10;95.60;;;;;;5145390;27;20029;-54
2022/07/29 04:50:08;;;;;;;;;;;26.10;95.60;;;;;;5145707;27;19915;-51
2022/07/29 04:52:35;;;;;;;;;;;26.10;95.60;;;;;;5145527;27;19911;-56
2022/07/29 04:55:01;;;;;;;;;;;26.10;95.60;;;;;;5145489;27;19953;-49
2022/07/29 04:57:27;;;;;;;;;;;26.10;95.60;;;;;;5146159;27;19911;-49
2022/07/29 04:59:53;;;;;;;;;;;26.10;95.60;;;;;;5145962;27;20187;-48
2022/07/29 05:02:19;;;;;;;;;;;26.10;95.60;;;;;;5145273;27;19941;-49
2022/07/29 05:04:46;;;;;;;;;;;26.10;95.60;;;;;;5134316;27;19912;-51
2022/07/29 05:07:12;;;;;;;;;;;26.10;95.60;;;;;;5124936;28;19918;-49
2022/07/29 05:09:38;;;;;;;;;;;26.10;95.70;;;;;;5124997;28;19915;-50
2022/07/29 05:12:04;;;;;;;;;;;26.10;95.70;;;;;;5124932;28;19903;-49
2022/07/29 05:14:30;;;;;;;;;;;26.10;95.70;;;;;;5124709;28;19926;-48
2022/07/29 05:16:56;;;;;;;;;;;26.10;95.70;;;;;;5124543;28;19911;-48
2022/07/29 05:19:23;;;;;;;;;;;26.10;95.70;;;;;;5124453;28;20189;-52
2022/07/29 05:21:49;;;;;;;;;;;26.10;95.70;;;;;;5124543;28;19907;-49
2022/07/29 05:24:16;;;;;;;;;;;26.10;95.70;;;;;;5124092;28;20179;-51
2022/07/29 05:26:42;;;;;;;;;;;26.10;95.70;;;;;;5116759;28;19923;-51
2022/07/29 05:29:08;;;;;;;;;;;26.10;95.60;;;;;;5124577;28;19987;-55
2022/07/29 05:31:34;;;;;;;;;;;26.10;95.60;;;;;;5125040;28;19944;-48
2022/07/29 05:34:00;;;;;;;;;;;26.10;95.70;;;;;;5124446;28;19915;-48
2022/07/29 05:36:27;;;;;;;;;;;26.10;95.70;;;;;;5125102;28;19908;-47
2022/07/29 05:38:53;;;;;;;;;;;26.10;95.70;;;;;;5124502;28;19908;-50
2022/07/29 05:41:19;;;;;;;;;;;26.10;95.70;;;;;;5124853;28;19912;-48
2022/07/29 05:43:45;;;;;;;;;;;26.10;95.70;;;;;;5124639;28;19908;-47
2022/07/29 05:46:12;;;;;;;;;;;26.10;95.80;;;;;;5124986;28;19908;-52
2022/07/29 05:48:38;;;;;;;;;;;26.10;95.80;;;;;;5124416;28;20026;-49
2022/07/29 05:51:05;;;;;;;;;;;26.10;95.80;;;;;;5124754;28;20068;-52
2022/07/29 05:53:31;;;;;;;;;;;26.10;95.80;;;;;;5124565;28;19908;-51
2022/07/29 05:55:57;;;;;;;;;;;26.10;95.90;;;;;;5127297;28;19908;-52
2022/07/29 05:58:23;;;;;;;;;;;26.10;95.90;;;;;;5128255;28;19914;-49
2022/07/29 06:00:49;;;;;;;;;;;26.10;95.90;;;;;;5128026;28;19908;-48
2022/07/29 06:03:15;;;;;;;;;;;26.10;95.90;;;;;;5127675;28;19911;-54
2022/07/29 06:05:42;;;;;;;;;;;26.10;95.90;;;;;;5128157;28;19919;-53
2022/07/29 06:08:08;;;;;;;;;;;26.10;95.90;;;;;;5109813;28;19911;-51
2022/07/29 06:10:34;;;;;;;;;;;26.00;95.90;;;;;;5128028;28;19943;-51
2022/07/29 06:13:01;;;;;;;;;;;26.10;96.00;;;;;;5128133;28;19933;-49
2022/07/29 06:15:27;;;;;;;;;;;26.10;96.00;;;;;;5127966;28;19987;-48
2022/07/29 06:17:53;;;;;;;;;;;26.00;96.00;;;;;;5127883;28;19904;-48
2022/07/29 06:20:19;;;;;;;;;;;26.10;96.10;;;;;;5127647;28;20135;-54
2022/07/29 06:22:45;;;;;;;;;;;26.10;96.10;;;;;;5127689;28;19927;-48
2022/07/29 06:25:11;;;;;;;;;;;26.00;96.00;;;;;;5127712;28;19919;-52
2022/07/29 06:27:37;;;;;;;;;;;26.10;96.10;;;;;;5127339;28;19904;-49
2022/07/29 06:30:06;;;;;;;;;;;26.10;96.10;;;;;;5127837;28;19981;-49
2022/07/29 06:32:33;;;;;;;;;;;26.00;96.10;;;;;;5127585;28;19904;-49
2022/07/29 06:34:59;;;;;;;;;;;26.10;96.10;;;;;;5127545;28;20184;-48
2022/07/29 06:37:25;;;;;;;;;;;26.10;96.10;;;;;;5127560;28;20099;-49
2022/07/29 06:40:59;;;;;;;;;;;26.00;96.10;;;;;;5127475;28;19919;-50
2022/07/29 06:42:37;;;;;;;;;;;26.00;96.00;;;;;;5127300;28;19904;-48
2022/07/29 06:45:03;;;;;;;;;;;26.10;96.10;;;;;;5127230;28;19918;-50
2022/07/29 06:47:29;;;;;;;;;;;26.10;96.10;;;;;;5127056;28;19904;-53
2022/07/29 06:49:56;;;;;;;;;;;26.00;96.00;;;;;;5127343;28;20179;-54
2022/07/29 06:52:22;;;;;;;;;;;26.10;96.10;;;;;;5127301;28;19904;-54
2022/07/29 06:54:48;;;;;;;;;;;26.00;96.00;;;;;;5127211;28;19911;-52
2022/07/29 06:57:14;;;;;;;;;;;26.00;96.00;;;;;;5127275;28;19903;-50
2022/07/29 06:59:40;;;;;;;;;;;26.00;96.00;;;;;;5127366;28;19954;-48
2022/07/29 07:02:06;;;;;;;;;;;26.00;95.80;;;;;;5126983;28;20122;-52
2022/07/29 07:04:33;;;;;;;;;;;26.00;95.80;;;;;;5126874;28;19911;-50
2022/07/29 07:06:59;;;;;;;;;;;26.10;95.80;;;;;;5126762;28;19910;-49
2022/07/29 07:09:25;;;;;;;;;;;26.00;95.80;;;;;;5126772;28;19907;-51
2022/07/29 07:11:51;;;;;;;;;;;26.00;95.80;;;;;;5126676;28;19911;-52
2022/07/29 07:14:17;;;;;;;;;;;26.00;95.70;;;;;;5126817;28;20229;-56
2022/07/29 07:16:43;;;;;;;;;;;26.00;95.70;;;;;;5126810;28;19945;-48
2022/07/29 07:19:10;;;;;;;;;;;26.00;95.70;;;;;;5126190;28;20040;-52
2022/07/29 07:21:36;;;;;;;;;;;26.00;95.70;;;;;;5127138;28;20234;-48
2022/07/29 07:24:02;;;;;;;;;;;26.00;95.70;;;;;;5126447;28;19911;-49
2022/07/29 07:26:28;;;;;;;;;;;26.00;95.70;;;;;;5126938;28;19915;-48
2022/07/29 07:28:54;;;;;;;;;;;26.00;95.70;;;;;;5126464;28;19911;-49
2022/07/29 07:31:21;;;;;;;;;;;26.00;95.70;;;;;;5126786;28;19908;-53
2022/07/29 07:33:47;;;;;;;;;;;26.00;95.70;;;;;;5126058;28;20217;-54
2022/07/29 07:36:13;;;;;;;;;;;26.00;95.70;;;;;;5126240;28;20179;-55
2022/07/29 07:38:39;;;;;;;;;;;26.00;95.70;;;;;;5126204;28;19911;-50
2022/07/29 07:41:05;;;;;;;;;;;25.90;95.60;;;;;;5126508;28;19911;-55
2022/07/29 07:43:31;;;;;;;;;;;26.00;95.70;;;;;;5126184;28;19904;-52
2022/07/29 07:45:57;;;;;;;;;;;26.00;95.70;;;;;;5126503;28;19934;-49
2022/07/29 07:48:23;;;;;;;;;;;26.00;95.60;;;;;;5125998;28;20138;-48
2022/07/29 07:50:50;;;;;;;;;;;26.00;95.60;;;;;;5126216;28;19933;-51
2022/07/29 07:53:16;;;;;;;;;;;26.00;95.60;;;;;;5126354;28;19926;-52
2022/07/29 07:55:42;;;;;;;;;;;26.00;95.60;;;;;;5126281;28;19912;-49
2022/07/29 07:58:09;;;;;;;;;;;25.90;95.60;;;;;;5125670;28;19939;-52
2022/07/29 08:00:35;;;;;;;;;;;26.00;95.60;;;;;;5126025;28;19911;-53
2022/07/29 08:03:02;;;;;;;;;;;26.00;95.60;;;;;;5125839;28;19904;-47
2022/07/29 08:05:28;;;;;;;;;;;26.00;95.70;;;;;;5125451;28;19918;-48
2022/07/29 08:07:54;;;;;;;;;;;26.00;95.70;;;;;;5125832;28;19912;-48
2022/07/29 08:13:06;;;;;;;;;;;25.90;95.60;;;;;;5125768;28;19911;-51
2022/07/29 08:15:32;;;;;;;;;;;26.00;95.60;;;;;;5125826;28;19912;-52
2022/07/29 08:17:58;;;;;;;;;;;26.10;95.50;;;;;;5124776;28;19904;-55
2022/07/29 08:20:25;;;;;;;;;;;26.10;95.40;;;;;;5125730;28;20107;-52
2022/07/29 08:22:52;;;;;;;;;;;26.10;95.20;;;;;;5125433;28;20191;-49
2022/07/29 08:25:20;;;;;;;;;;;26.20;95.20;;;;;;5125370;28;19911;-49
2022/07/29 08:27:46;;;;;;;;;;;26.20;95.10;;;;;;5125536;28;20206;-49
2022/07/29 08:30:13;;;;;;;;;;;26.20;95.10;;;;;;5125163;28;19916;-50
2022/07/29 08:32:39;;;;;;;;;;;26.20;95.00;;;;;;5125251;28;19911;-53
2022/07/29 08:35:05;;;;;;;;;;;26.20;95.00;;;;;;5125393;28;19918;-51
2022/07/29 08:37:32;;;;;;;;;;;26.20;95.20;;;;;;5125807;28;19907;-51
2022/07/29 08:39:58;;;;;;;;;;;26.20;95.00;;;;;;5125529;28;19943;-51
2022/07/29 08:42:24;;;;;;;;;;;26.20;94.90;;;;;;5125125;28;19903;-48
2022/07/29 08:44:50;;;;;;;;;;;26.20;94.90;;;;;;5125341;28;19911;-48
2022/07/29 08:47:17;;;;;;;;;;;26.20;94.90;;;;;;5125229;28;19966;-48
2022/07/29 08:49:44;;;;;;;;;;;26.20;94.80;;;;;;5124884;28;19916;-50
2022/07/29 08:52:11;;;;;;;;;;;26.20;94.80;;;;;;5125141;28;19935;-48
2022/07/29 08:54:38;;;;;;;;;;;26.20;94.80;;;;;;5125032;28;19946;-48
2022/07/29 08:57:05;;;;;;;;;;;26.20;94.80;;;;;;5124844;28;19910;-50
2022/07/29 08:59:33;;;;;;;;;;;26.20;94.80;;;;;;5124928;28;19910;-48
2022/07/29 09:02:00;;;;;;;;;;;26.20;94.80;;;;;;5124891;28;19904;-47
2022/07/29 09:04:34;;;;;;;;;;;26.20;94.80;;;;;;5124628;28;19974;-53
2022/07/29 09:07:04;;;;;;;;;;;26.30;94.80;;;;;;5125051;28;19983;-48
2022/07/29 09:09:30;;;;;;;;;;;26.20;94.80;;;;;;5124635;28;19915;-49
2022/07/29 09:11:56;;;;;;;;;;;26.20;94.80;;;;;;5124792;28;19912;-50
2022/07/29 09:14:22;;;;;;;;;;;26.20;94.80;;;;;;5124687;28;19904;-47
2022/07/29 09:16:53;;;;;;;;;;;26.20;94.80;;;;;;5124662;28;20232;-49
2022/07/29 09:19:23;;;;;;;;;;;26.20;94.70;;;;;;5124608;28;20195;-48
2022/07/29 09:21:58;;;;;;;;;;;26.20;94.70;;;;;;5124575;28;19915;-55
2022/07/29 09:24:26;;;;;;;;;;;26.20;94.70;;;;;;5124727;28;20087;-47
2022/07/29 09:26:52;;;;;;;;;;;26.10;94.80;;;;;;5124892;28;19907;-51
2022/07/29 09:29:20;;;;;;;;;;;26.10;94.90;;;;;;5124616;28;19978;-50
2022/07/29 09:31:51;;;;;;;;;;;26.10;94.90;;;;;;5128691;28;19908;-47
2022/07/29 09:34:25;;;;;;;;;;;26.00;94.90;;;;;;5128584;28;19971;-51
2022/07/29 09:36:52;;;;;;;;;;;26.10;94.90;;;;;;5128519;28;19930;-48
2022/07/29 09:39:29;;;;;;;;;;;26.00;94.90;;;;;;5128502;28;20142;-49
2022/07/29 09:41:57;;;;;;;;;;;26.00;94.90;;;;;;5128355;28;20096;-48
2022/07/29 09:44:23;;;;;;;;;;;26.00;94.90;;;;;;5128211;28;19903;-52
2022/07/29 09:47:05;;;;;;;;;;;26.00;94.90;;;;;;5128901;28;19939;-51
2022/07/29 09:49:33;;;;;;;;;;;26.00;94.90;;;;;;5128148;28;19939;-47
2022/07/29 09:52:00;;;;;;;;;;;26.00;94.90;;;;;;5128262;28;19975;-48
2022/07/29 09:54:27;;;;;;;;;;;26.00;95.00;;;;;;5128283;28;20245;-49
2022/07/29 09:56:54;;;;;;;;;;;26.00;94.90;;;;;;5127995;28;19911;-47
2022/07/29 09:59:22;;;;;;;;;;;26.00;94.90;;;;;;5128177;28;19904;-49
2022/07/29 10:01:51;;;;;;;;;;;26.00;94.90;;;;;;5128062;28;19911;-48
2022/07/29 10:04:18;;;;;;;;;;;26.00;94.90;;;;;;5128037;28;19967;-49
2022/07/29 10:07:00;;;;;;;;;;;26.00;94.90;;;;;;5128299;28;19915;-47
2022/07/29 10:09:26;;;;;;;;;;;26.00;94.90;;;;;;5127767;28;19908;-53
2022/07/29 10:12:05;;;;;;;;;;;25.90;94.90;;;;;;5128563;28;20096;-50
2022/07/29 10:14:32;;;;;;;;;;;25.90;94.90;;;;;;5125330;28;20204;-46
2022/07/29 10:16:59;;;;;;;;;;;25.90;94.90;;;;;;5122205;28;19965;-46
2022/07/29 10:19:26;;;;;;;;;;;25.90;94.90;;;;;;5127646;28;19920;-50
2022/07/29 10:21:52;;;;;;;;;;;25.90;94.90;;;;;;5127856;28;19911;-48
2022/07/29 10:24:18;;;;;;;;;;;25.90;94.90;;;;;;5127516;28;19910;-50
2022/07/29 10:26:46;;;;;;;;;;;25.90;94.90;;;;;;5127742;28;19907;-46
2022/07/29 10:29:12;;;;;;;;;;;25.90;94.80;;;;;;5127580;28;19915;-47
2022/07/29 10:31:47;;;;;;;;;;;25.90;94.80;;;;;;5127331;28;19934;-48
2022/07/29 10:34:26;;;;;;;;;;;25.90;94.80;;;;;;5127552;28;19944;-54
2022/07/29 10:36:59;;;;;;;;;;;25.90;94.80;;;;;;5127581;28;19908;-51
2022/07/29 10:39:33;;;;;;;;;;;25.90;94.90;;;;;;5127394;28;19970;-49
2022/07/29 10:42:06;;;;;;;;;;;25.90;94.90;;;;;;5126763;28;19914;-46
2022/07/29 10:44:33;;;;;;;;;;;25.90;94.90;;;;;;5127372;28;19918;-50
2022/07/29 10:46:59;;;;;;;;;;;25.90;94.90;;;;;;5127441;28;19908;-52
2022/07/29 10:49:26;;;;;;;;;;;25.90;94.90;;;;;;5127292;28;19930;-49
2022/07/29 10:52:00;;;;;;;;;;;25.90;94.90;;;;;;5126537;28;19908;-47
2022/07/29 10:54:46;;;;;;;;;;;25.90;94.90;;;;;;5126211;28;19915;-51
2022/07/29 10:57:20;;;;;;;;;;;25.90;94.90;;;;;;5126372;28;19954;-49
2022/07/29 10:59:50;;;;;;;;;;;25.90;94.90;;;;;;5126993;28;19943;-50
2022/07/29 11:02:37;;;;;;;;;;;25.90;94.90;;;;;;5126764;28;19904;-47
2022/07/29 11:05:05;;;;;;;;;;;26.00;94.90;;;;;;5126806;28;19975;-51
2022/07/29 11:07:34;;;;;;;;;;;25.90;94.90;;;;;;5126777;28;19903;-49
2022/07/29 11:10:15;;;;;;;;;;;26.00;94.90;;;;;;5126576;28;19922;-48
2022/07/29 11:12:41;;;;;;;;;;;26.00;94.90;;;;;;5126653;28;19903;-47
2022/07/29 11:15:08;;;;;;;;;;;26.00;94.90;;;;;;5126924;28;19934;-51
2022/07/29 11:17:53;;;;;;;;;;;26.00;95.00;;;;;;5126567;28;20187;-48
2022/07/29 11:20:38;;;;;;;;;;;26.10;94.90;;;;;;5123616;28;19981;-50
2022/07/29 11:23:29;;;;;;;;;;;26.30;94.70;;;;;;5125912;28;19908;-56
2022/07/29 11:26:26;;;;;;;;;;;26.50;94.20;;;;;;5126574;28;19911;-48
2022/07/29 11:28:59;;;;;;;;;;;26.80;93.90;;;;;;5113062;28;19912;-51
2022/07/29 11:31:34;;;;;;;;;;;27.00;93.60;;;;;;5108438;28;19907;-54
2022/07/29 11:34:17;;;;;;;;;;;27.10;93.50;;;;;;5126485;28;19965;-54
2022/07/29 11:37:02;;;;;;;;;;;27.00;93.50;;;;;;5126513;28;20135;-54
2022/07/29 11:39:28;;;;;;;;;;;27.00;93.60;;;;;;5126114;28;19945;-53
2022/07/29 11:42:14;;;;;;;;;;;26.90;93.50;;;;;;5125427;28;19908;-51
2022/07/29 11:44:59;;;;;;;;;;;26.90;93.90;;;;;;5105629;28;19958;-52
2022/07/29 11:47:25;;;;;;;;;;;27.00;93.50;;;;;;5105068;28;19912;-56
2022/07/29 11:49:52;;;;;;;;;;;27.10;93.30;;;;;;5104882;28;19916;-52
2022/07/29 11:52:18;;;;;;;;;;;27.20;93.20;;;;;;5102561;28;20184;-54
2022/07/29 11:54:47;;;;;;;;;;;27.30;93.00;;;;;;5103530;28;20092;-58
2022/07/29 11:57:14;;;;;;;;;;;27.20;93.20;;;;;;5103692;28;19904;-54
2022/07/29 11:59:43;;;;;;;;;;;27.10;93.10;;;;;;5103557;28;20010;-54
2022/07/29 12:02:10;;;;;;;;;;;27.00;93.50;;;;;;5103282;28;20214;-53
2022/07/29 12:04:52;;;;;;;;;;;26.90;93.60;;;;;;5103284;28;19912;-57
2022/07/29 12:07:18;;;;;;;;;;;26.90;93.90;;;;;;5104917;28;19946;-54
2022/07/29 12:09:51;;;;;;;;;;;26.80;94.10;;;;;;5104800;28;19916;-53
2022/07/29 12:12:18;;;;;;;;;;;26.80;94.20;;;;;;5104868;28;19910;-54
2022/07/29 12:14:47;;;;;;;;;;;26.80;94.10;;;;;;5104625;28;19935;-55
2022/07/29 12:17:32;;;;;;;;;;;26.80;94.30;;;;;;5104887;28;19910;-55
2022/07/29 12:20:00;;;;;;;;;;;26.80;94.50;;;;;;5105210;28;20004;-55
2022/07/29 12:22:27;;;;;;;;;;;26.80;94.30;;;;;;5105067;28;19934;-53
2022/07/29 12:24:55;;;;;;;;;;;26.90;94.30;;;;;;5105033;28;19912;-56
2022/07/29 12:27:22;;;;;;;;;;;26.90;94.30;;;;;;5086881;28;19908;-55
2022/07/29 12:29:59;;;;;;;;;;;26.90;94.20;;;;;;5086212;28;19991;-54
2022/07/29 12:32:31;;;;;;;;;;;27.00;94.10;;;;;;5104959;28;20249;-53
2022/07/29 12:34:57;;;;;;;;;;;27.00;94.10;;;;;;5104479;28;19979;-53
2022/07/29 12:37:23;;;;;;;;;;;27.00;94.10;;;;;;5104504;28;19904;-54
2022/07/29 12:39:50;;;;;;;;;;;27.10;94.00;;;;;;5104512;28;20096;-55
2022/07/29 12:42:17;;;;;;;;;;;27.10;94.00;;;;;;5104307;28;20120;-55
2022/07/29 12:44:47;;;;;;;;;;;27.10;93.90;;;;;;5086336;28;20211;-54
2022/07/29 12:47:14;;;;;;;;;;;27.10;93.80;;;;;;5104425;28;19927;-54
2022/07/29 12:49:40;;;;;;;;;;;27.20;93.70;;;;;;5104109;28;20188;-54
2022/07/29 12:52:25;;;;;;;;;;;27.20;93.70;;;;;;5104011;28;19908;-54
2022/07/29 12:54:51;;;;;;;;;;;27.20;93.60;;;;;;5104135;28;20215;-55
2022/07/29 12:57:17;;;;;;;;;;;27.20;93.70;;;;;;5104127;28;19904;-54
2022/07/29 12:59:44;;;;;;;;;;;27.20;93.40;;;;;;5104259;28;20091;-57
2022/07/29 13:02:22;;;;;;;;;;;27.30;93.50;;;;;;5104240;28;20188;-58
2022/07/29 13:04:58;;;;;;;;;;;27.30;93.40;;;;;;5116002;28;20129;-53
2022/07/29 13:07:26;;;;;;;;;;;27.30;93.30;;;;;;5144931;27;19903;-61
2022/07/29 13:09:54;;;;;;;;;;;27.30;93.30;;;;;;5144992;28;19916;-55
2022/07/29 13:12:20;;;;;;;;;;;27.30;93.00;;;;;;5144864;28;19904;-53
2022/07/29 13:14:47;;;;;;;;;;;27.30;93.10;;;;;;5144714;28;19911;-55
2022/07/29 13:17:17;;;;;;;;;;;27.40;93.10;;;;;;5145004;28;19903;-58
2022/07/29 13:19:46;;;;;;;;;;;27.40;92.80;;;;;;5144996;28;20183;-54
2022/07/29 13:22:14;;;;;;;;;;;27.40;92.80;;;;;;5143083;28;19941;-54
2022/07/29 13:24:49;;;;;;;;;;;27.40;92.80;;;;;;5144927;28;19911;-54
2022/07/29 13:27:16;;;;;;;;;;;27.40;92.60;;;;;;5142221;28;19926;-55
2022/07/29 13:29:43;;;;;;;;;;;27.40;92.70;;;;;;5144709;28;19916;-54
2022/07/29 13:32:09;;;;;;;;;;;27.40;92.80;;;;;;5126503;28;19985;-54
2022/07/29 13:34:35;;;;;;;;;;;27.40;92.50;;;;;;5144965;28;20234;-54
2022/07/29 13:37:01;;;;;;;;;;;27.40;91.70;;;;;;5144715;28;19965;-52
2022/07/29 13:39:28;;;;;;;;;;;27.50;92.10;;;;;;5144782;28;19910;-52
2022/07/29 13:41:54;;;;;;;;;;;27.50;92.30;;;;;;5144878;28;20230;-53
2022/07/29 13:44:20;;;;;;;;;;;27.50;92.00;;;;;;5144528;28;19946;-54
2022/07/29 13:46:46;;;;;;;;;;;27.50;91.70;;;;;;5138682;28;19908;-52
2022/07/29 13:49:12;;;;;;;;;;;27.50;92.10;;;;;;5124083;28;19907;-53
2022/07/29 13:51:38;;;;;;;;;;;27.50;92.20;;;;;;5137594;28;20157;-54
2022/07/29 13:54:04;;;;;;;;;;;27.60;92.10;;;;;;5142798;28;20222;-52
2022/07/29 13:56:31;;;;;;;;;;;27.60;92.20;;;;;;5129599;28;20183;-53
2022/07/29 13:58:57;;;;;;;;;;;27.60;92.20;;;;;;5133312;28;19908;-56
2022/07/29 14:01:23;;;;;;;;;;;27.60;91.90;;;;;;5128562;28;19920;-55
2022/07/29 14:03:49;;;;;;;;;;;27.60;92.10;;;;;;5135820;28;19960;-52
2022/07/29 14:06:16;;;;;;;;;;;27.60;92.10;;;;;;5134026;28;19918;-56
2022/07/29 14:08:42;;;;;;;;;;;27.60;92.30;;;;;;5139697;28;19907;-54
2022/07/29 14:11:09;;;;;;;;;;;27.70;92.20;;;;;;5142144;28;19916;-54
2022/07/29 14:13:35;;;;;;;;;;;27.70;92.30;;;;;;5131564;28;19908;-58
2022/07/29 14:16:01;;;;;;;;;;;27.70;92.10;;;;;;5138961;27;19915;-55
2022/07/29 14:18:27;;;;;;;;;;;27.70;91.90;;;;;;5141510;27;20126;-51
2022/07/29 14:20:53;;;;;;;;;;;27.70;91.80;;;;;;5140814;27;19911;-53
2022/07/29 14:23:19;;;;;;;;;;;27.70;91.90;;;;;;5147949;27;20099;-54
2022/07/29 14:25:46;;;;;;;;;;;27.70;92.30;;;;;;5148582;27;19978;-54
2022/07/29 14:28:12;;;;;;;;;;;27.70;92.20;;;;;;5148065;27;19961;-53
2022/07/29 14:30:39;;;;;;;;;;;27.80;92.30;;;;;;5148342;27;19911;-54
2022/07/29 14:33:05;;;;;;;;;;;27.80;92.40;;;;;;5146724;27;19914;-53
2022/07/29 14:35:32;;;;;;;;;;;27.80;92.30;;;;;;5115725;28;19939;-56
2022/07/29 14:37:58;;;;;;;;;;;27.80;91.80;;;;;;5136776;27;19907;-54
2022/07/29 14:40:25;;;;;;;;;;;27.80;92.30;;;;;;5148083;27;19911;-55
2022/07/29 14:42:51;;;;;;;;;;;27.80;92.30;;;;;;5148038;27;19903;-58
2022/07/29 14:45:18;;;;;;;;;;;27.80;92.50;;;;;;5148103;27;19912;-56
2022/07/29 14:47:44;;;;;;;;;;;27.90;92.00;;;;;;5129240;27;20111;-55
2022/07/29 14:50:10;;;;;;;;;;;27.90;92.10;;;;;;5141870;27;19919;-54
2022/07/29 14:52:36;;;;;;;;;;;27.90;92.30;;;;;;5139129;27;19908;-59
2022/07/29 14:55:03;;;;;;;;;;;27.90;92.40;;;;;;5139387;27;19919;-55